createdAt,value
2018-01-05T00:01:06.555Z,9.65
2018-01-05T00:03:34.831Z,22.02
2018-01-05T00:06:03.109Z,16.98
2018-01-05T00:08:30.571Z,13.00
2018-01-05T00:10:58.838Z,18.08
2018-01-05T00:13:26.319Z,17.17
2018-01-05T00:15:54.542Z,13.30
2018-01-05T00:18:22.061Z,17.75
2018-01-05T00:20:49.538Z,14.25
2018-01-05T00:23:17.011Z,15.13
2018-01-05T00:25:44.467Z,15.90
2018-01-05T00:28:11.974Z,19.85
2018-01-05T00:30:40.205Z,11.55
2018-01-05T00:33:07.722Z,14.50
2018-01-05T00:35:35.955Z,12.13
2018-01-05T00:38:03.457Z,16.20
2018-01-05T00:40:31.713Z,10.60
2018-01-05T00:42:59.960Z,15.45
2018-01-05T00:45:27.437Z,7.28
2018-01-05T00:47:54.963Z,16.98
2018-01-05T00:50:22.431Z,15.38
2018-01-05T00:52:49.920Z,24.25
2018-01-05T00:55:17.373Z,21.73
2018-01-05T00:57:44.860Z,11.15
2018-01-05T01:00:13.089Z,14.40
2018-01-05T01:02:40.589Z,9.38
2018-01-05T01:05:08.818Z,20.88
2018-01-05T01:07:36.300Z,21.87
2018-01-05T01:10:03.951Z,15.45
2018-01-05T01:12:31.406Z,16.83
2018-01-05T01:14:58.889Z,10.45
2018-01-05T01:17:26.390Z,14.90
2018-01-05T01:19:53.878Z,19.87
2018-01-05T01:22:21.381Z,24.23
2018-01-05T01:24:49.634Z,16.37
2018-01-05T01:27:17.134Z,21.30
2018-01-05T01:29:44.591Z,15.90
2018-01-05T01:32:12.087Z,16.10
2018-01-05T01:34:39.582Z,15.80
2018-01-05T01:37:07.815Z,19.30
2018-01-05T01:39:35.758Z,16.30
2018-01-05T01:42:03.232Z,21.83
2018-01-05T01:44:30.738Z,6.20
2018-01-05T01:46:58.971Z,18.00
2018-01-05T01:49:26.431Z,12.80
2018-01-05T01:51:53.928Z,15.95
2018-01-05T01:54:21.427Z,13.32
2018-01-05T01:56:48.919Z,9.85
2018-01-05T01:59:16.382Z,19.70
2018-01-05T02:01:43.886Z,14.55
2018-01-05T02:04:12.111Z,21.58
2018-01-05T02:06:39.591Z,12.80
2018-01-05T02:09:07.103Z,17.60
2018-01-05T02:11:35.360Z,8.20
2018-01-05T02:14:03.582Z,13.48
2018-01-05T02:16:31.063Z,13.02
2018-01-05T02:18:58.543Z,18.92
2018-01-05T02:21:26.773Z,16.42
2018-01-05T02:23:54.295Z,20.40
2018-01-05T02:26:21.743Z,18.00
2018-01-05T02:28:49.989Z,10.63
2018-01-05T02:31:17.463Z,15.65
2018-01-05T02:33:45.766Z,20.33
2018-01-05T02:36:13.237Z,18.98
2018-01-05T02:38:41.579Z,11.90
2018-01-05T02:41:09.827Z,15.88
2018-01-05T02:43:37.340Z,12.63
2018-01-05T02:46:04.824Z,22.58
2018-01-05T02:48:32.277Z,11.75
2018-01-05T02:50:59.772Z,15.77
2018-01-05T02:53:27.230Z,13.38
2018-01-05T02:55:54.726Z,18.20
2018-01-05T02:58:22.173Z,14.87
2018-01-05T03:00:49.692Z,20.30
2018-01-05T03:03:17.145Z,9.50
2018-01-05T03:05:44.630Z,14.32
2018-01-05T03:08:12.878Z,9.27
2018-01-05T03:10:40.358Z,11.55
2018-01-05T03:13:08.604Z,11.00
2018-01-05T03:15:36.081Z,15.35
2018-01-05T03:18:03.619Z,18.27
2018-01-05T03:20:31.083Z,19.48
2018-01-05T03:22:58.605Z,22.37
2018-01-05T03:25:26.085Z,26.30
2018-01-05T03:27:53.543Z,19.40
2018-01-05T03:30:21.063Z,15.75
2018-01-05T03:32:49.291Z,12.95
2018-01-05T03:35:16.758Z,10.77
2018-01-05T03:37:44.239Z,12.23
2018-01-05T03:40:11.728Z,10.68
2018-01-05T03:42:39.195Z,17.67
2018-01-05T03:45:06.685Z,10.98
2018-01-05T03:47:34.145Z,9.43
2018-01-05T03:50:01.662Z,14.23
2018-01-05T03:52:29.157Z,19.27
2018-01-05T03:54:56.630Z,13.35
2018-01-05T03:57:24.118Z,15.00
2018-01-05T03:59:52.361Z,17.45
2018-01-05T04:02:19.879Z,9.48
2018-01-05T04:04:47.326Z,19.20
2018-01-05T04:07:14.827Z,16.60
2018-01-05T04:09:42.315Z,7.97
2018-01-05T04:12:09.774Z,10.48
2018-01-05T04:14:37.262Z,25.60
2018-01-05T04:17:04.727Z,6.70
2018-01-05T04:19:32.220Z,15.45
2018-01-05T04:21:59.679Z,14.07
2018-01-05T04:24:27.154Z,11.85
2018-01-05T04:26:54.667Z,16.92
2018-01-05T04:29:22.153Z,12.40
2018-01-05T04:31:49.629Z,12.68
2018-01-05T04:34:17.113Z,15.50
2018-01-05T04:36:45.353Z,13.35
2018-01-05T04:39:12.851Z,10.57
2018-01-05T04:41:41.102Z,15.35
2018-01-05T04:44:08.586Z,20.80
2018-01-05T04:46:36.845Z,11.32
2018-01-05T04:49:04.309Z,9.02
2018-01-05T04:51:31.792Z,10.75
2018-01-05T04:54:00.050Z,19.10
2018-01-05T04:56:27.494Z,6.30
2018-01-05T04:58:54.992Z,7.12
2018-01-05T05:01:23.218Z,11.63
2018-01-05T05:03:50.711Z,9.88
2018-01-05T05:06:18.941Z,11.93
2018-01-05T05:08:46.401Z,9.70
2018-01-05T05:11:13.890Z,6.95
2018-01-05T05:13:41.369Z,8.77
2018-01-05T05:16:09.610Z,13.82
2018-01-05T05:18:37.074Z,9.38
2018-01-05T05:21:04.589Z,11.63
2018-01-05T05:23:32.050Z,12.48
2018-01-05T05:25:59.529Z,12.00
2018-01-05T05:28:27.013Z,11.77
2018-01-05T05:30:55.262Z,10.52
2018-01-05T05:33:22.749Z,13.73
2018-01-05T05:35:50.979Z,14.25
2018-01-05T05:38:18.467Z,5.28
2018-01-05T05:40:45.933Z,6.97
2018-01-05T05:43:13.462Z,9.32
2018-01-05T05:45:40.964Z,10.43
2018-01-05T05:48:09.186Z,14.85
2018-01-05T05:50:36.686Z,3.45
2018-01-05T05:53:04.135Z,6.72
2018-01-05T05:55:31.681Z,8.48
2018-01-05T05:57:59.136Z,7.00
2018-01-05T06:00:26.585Z,8.60
2018-01-05T06:02:54.074Z,9.88
2018-01-05T06:05:21.557Z,13.68
2018-01-05T06:07:49.831Z,10.80
2018-01-05T06:10:18.110Z,4.18
2018-01-05T06:12:46.385Z,8.70
2018-01-05T06:15:14.632Z,12.07
2018-01-05T06:17:42.090Z,8.30
2018-01-05T06:20:09.598Z,9.10
2018-01-05T06:22:37.812Z,7.95
2018-01-05T06:25:05.270Z,11.10
2018-01-05T06:27:32.770Z,9.02
2018-01-05T06:30:01.039Z,6.05
2018-01-05T06:32:28.502Z,7.15
2018-01-05T06:34:56.725Z,6.45
2018-01-05T06:37:24.545Z,12.98
2018-01-05T06:39:52.787Z,7.25
2018-01-05T06:42:20.280Z,7.35
2018-01-05T06:44:47.761Z,7.93
2018-01-05T06:47:15.220Z,6.28
2018-01-05T06:49:42.726Z,13.02
2018-01-05T06:52:10.220Z,5.97
2018-01-05T06:54:38.433Z,6.65
2018-01-05T06:57:05.945Z,14.82
2018-01-05T06:59:34.208Z,7.75
2018-01-05T07:02:01.650Z,5.20
2018-01-05T07:04:29.144Z,7.97
2018-01-05T07:06:57.366Z,4.80
2018-01-05T07:09:24.822Z,5.40
2018-01-05T07:11:52.304Z,5.30
2018-01-05T07:14:19.757Z,4.53
2018-01-05T07:16:47.266Z,9.32
2018-01-05T07:19:15.486Z,7.18
2018-01-05T07:21:42.946Z,8.77
2018-01-05T07:24:10.480Z,6.53
2018-01-05T07:26:37.922Z,4.80
2018-01-05T07:29:05.440Z,6.78
2018-01-05T07:31:32.878Z,6.13
2018-01-05T07:34:00.374Z,8.50
2018-01-05T07:36:27.826Z,7.57
2018-01-05T07:38:55.410Z,4.07
2018-01-05T07:41:23.661Z,4.47
2018-01-05T07:43:51.117Z,10.45
2018-01-05T07:46:18.622Z,14.43
2018-01-05T07:48:46.134Z,9.38
2018-01-05T07:51:13.854Z,7.25
2018-01-05T07:53:41.317Z,4.12
2018-01-05T07:56:08.812Z,4.93
2018-01-05T07:58:36.311Z,12.23
2018-01-05T08:01:03.775Z,10.00
2018-01-05T08:03:31.313Z,16.33
2018-01-05T08:05:59.530Z,15.32
2018-01-05T08:08:27.006Z,12.93
2018-01-05T08:10:54.490Z,5.80
2018-01-05T08:13:22.012Z,14.57
2018-01-05T08:15:49.477Z,8.00
2018-01-05T08:18:16.938Z,9.45
2018-01-05T08:20:44.426Z,8.35
2018-01-05T08:23:11.910Z,39.72
2018-01-05T08:25:39.421Z,47.28
2018-01-05T08:28:06.877Z,43.58
2018-01-05T08:30:34.370Z,30.45
2018-01-05T08:33:02.600Z,29.48
2018-01-05T08:35:30.084Z,25.60
2018-01-05T08:37:57.620Z,10.27
2018-01-05T08:40:25.066Z,7.10
2018-01-05T08:42:52.562Z,8.48
2018-01-05T08:45:20.050Z,9.82
2018-01-05T08:47:47.549Z,9.45
2018-01-05T08:50:15.011Z,8.30
2018-01-05T08:52:42.529Z,8.95
2018-01-05T08:55:09.999Z,8.75
2018-01-05T08:57:37.493Z,16.48
2018-01-05T09:00:05.001Z,14.00
2018-01-05T09:02:33.241Z,10.98
2018-01-05T09:05:00.765Z,12.70
2018-01-05T09:07:28.261Z,10.80
2018-01-05T09:09:55.781Z,13.30
2018-01-05T09:12:23.240Z,9.48
2018-01-05T09:14:50.754Z,10.10
2018-01-05T09:17:18.993Z,19.77
2018-01-05T09:19:46.458Z,7.43
2018-01-05T09:22:13.935Z,7.82
2018-01-05T09:24:41.405Z,10.43
2018-01-05T09:27:08.932Z,11.63
2018-01-05T09:29:36.400Z,5.90
2018-01-05T09:32:03.899Z,10.40
2018-01-05T09:34:31.365Z,9.88
2018-01-05T09:36:58.849Z,7.65
2018-01-05T09:39:26.326Z,6.07
2018-01-05T09:41:53.839Z,7.53
2018-01-05T09:44:21.356Z,7.37
2018-01-05T09:46:48.810Z,7.60
2018-01-05T09:49:16.323Z,5.65
2018-01-05T09:51:43.791Z,5.95
2018-01-05T09:54:11.291Z,7.72
2018-01-05T09:56:38.761Z,6.93
2018-01-05T09:59:07.009Z,7.62
2018-01-05T10:01:34.498Z,7.45
2018-01-05T10:04:01.999Z,6.03
2018-01-05T10:06:29.506Z,6.87
2018-01-05T10:08:57.005Z,20.52
2018-01-05T10:11:24.491Z,4.70
2018-01-05T10:13:51.952Z,3.65
2018-01-05T10:16:19.449Z,11.18
2018-01-05T10:18:48.465Z,7.18
2018-01-05T10:21:15.940Z,7.78
2018-01-05T10:23:43.501Z,6.35
2018-01-05T10:26:11.002Z,3.83
2018-01-05T10:28:38.542Z,11.30
2018-01-05T10:31:06.006Z,8.80
2018-01-05T10:33:33.470Z,6.12
2018-01-05T10:36:00.977Z,13.82
2018-01-05T10:38:28.434Z,6.57
2018-01-05T10:40:55.957Z,8.60
2018-01-05T10:43:23.414Z,8.18
2018-01-05T10:45:50.906Z,5.43
2018-01-05T10:48:18.430Z,5.22
2018-01-05T10:50:45.911Z,11.23
2018-01-05T10:53:13.428Z,7.80
2018-01-05T10:55:40.887Z,14.47
2018-01-05T10:58:08.394Z,8.63
2018-01-05T11:00:36.631Z,8.03
2018-01-05T11:03:04.097Z,6.53
2018-01-05T11:05:31.596Z,9.33
2018-01-05T11:07:59.140Z,7.10
2018-01-05T11:10:26.641Z,6.70
2018-01-05T11:12:54.100Z,6.20
2018-01-05T11:15:21.619Z,6.78
2018-01-05T11:17:49.092Z,4.57
2018-01-05T11:20:17.330Z,6.27
2018-01-05T11:22:44.821Z,12.57
2018-01-05T11:25:13.065Z,4.40
2018-01-05T11:27:40.550Z,4.47
2018-01-05T11:30:08.776Z,10.00
2018-01-05T11:32:36.251Z,5.30
2018-01-05T11:35:03.770Z,6.20
2018-01-05T11:37:31.251Z,4.07
2018-01-05T11:39:58.738Z,18.50
2018-01-05T11:42:26.206Z,3.30
2018-01-05T11:44:53.707Z,6.97
2018-01-05T11:47:21.195Z,2.37
2018-01-05T11:49:48.700Z,4.10
2018-01-05T11:52:16.960Z,7.47
2018-01-05T11:54:44.436Z,5.50
2018-01-05T11:57:12.693Z,7.50
2018-01-05T11:59:40.184Z,6.10
2018-01-05T12:02:07.720Z,5.57
2018-01-05T12:04:35.177Z,6.70
2018-01-05T12:07:02.647Z,6.57
2018-01-05T12:09:30.903Z,6.53
2018-01-05T12:11:58.361Z,4.33
2018-01-05T12:14:26.615Z,5.10
2018-01-05T12:16:54.087Z,9.47
2018-01-05T12:19:21.572Z,5.63
2018-01-05T12:21:49.803Z,8.47
2018-01-05T12:24:17.265Z,4.70
2018-01-05T12:26:44.745Z,7.40
2018-01-05T12:29:12.251Z,5.73
2018-01-05T12:31:39.743Z,5.47
2018-01-05T12:34:07.218Z,6.53
2018-01-05T12:36:34.706Z,4.13
2018-01-05T12:39:02.971Z,8.53
2018-01-05T12:41:31.209Z,5.07
2018-01-05T12:43:58.697Z,7.93
2018-01-05T12:46:26.919Z,4.37
2018-01-05T12:48:54.554Z,6.40
2018-01-05T12:51:22.823Z,9.10
2018-01-05T12:53:51.178Z,10.83
2018-01-05T12:56:18.666Z,5.10
2018-01-05T12:58:47.744Z,5.17
2018-01-05T13:01:15.234Z,6.80
2018-01-05T13:03:42.711Z,7.00
2018-01-05T13:06:10.572Z,4.97
2018-01-05T13:08:38.079Z,5.83
2018-01-05T13:11:05.531Z,4.60
2018-01-05T13:13:33.069Z,4.67
2018-01-05T13:16:00.530Z,4.13
2018-01-05T13:18:28.054Z,3.40
2018-01-05T13:20:55.511Z,2.67
2018-01-05T13:23:22.981Z,1.90
2018-01-05T13:25:50.492Z,3.30
2018-01-05T13:28:17.950Z,5.20
2018-01-05T13:30:45.420Z,3.63
2018-01-05T13:33:13.671Z,3.60
2018-01-05T13:35:41.150Z,5.30
2018-01-05T13:38:08.757Z,5.10
2018-01-05T13:40:36.225Z,3.40
2018-01-05T13:43:03.720Z,2.93
2018-01-05T13:45:31.215Z,2.90
2018-01-05T13:47:59.469Z,4.23
2018-01-05T13:50:27.733Z,4.13
2018-01-05T13:52:55.280Z,5.87
2018-01-05T13:55:22.721Z,5.20
2018-01-05T13:57:50.187Z,7.10
2018-01-05T14:00:17.677Z,5.07
2018-01-05T14:02:45.937Z,5.20
2018-01-05T14:05:13.446Z,11.00
2018-01-05T14:07:40.902Z,3.07
2018-01-05T14:10:08.386Z,6.17
2018-01-05T14:12:37.567Z,8.13
2018-01-05T14:15:05.023Z,4.03
2018-01-05T14:17:32.532Z,4.33
2018-01-05T14:20:00.041Z,5.57
2018-01-05T14:22:27.495Z,3.70
2018-01-05T14:24:54.986Z,11.73
2018-01-05T14:27:22.532Z,6.43
2018-01-05T14:29:50.014Z,5.50
2018-01-05T14:32:17.478Z,21.50
2018-01-05T14:34:45.021Z,31.30
2018-01-05T14:37:12.474Z,10.93
2018-01-05T14:39:39.971Z,10.43
2018-01-05T14:42:07.447Z,25.43
2018-01-05T14:44:34.932Z,20.00
2018-01-05T14:47:02.439Z,14.07
2018-01-05T14:49:29.905Z,20.67
2018-01-05T14:51:58.171Z,19.90
2018-01-05T14:54:25.683Z,19.63
2018-01-05T14:56:53.194Z,19.73
2018-01-05T14:59:20.687Z,13.70
2018-01-05T15:01:48.165Z,11.23
2018-01-05T15:04:15.673Z,18.53
2018-01-05T15:06:43.180Z,16.47
2018-01-05T15:09:10.671Z,17.13
2018-01-05T15:11:38.161Z,21.67
2018-01-05T15:14:06.398Z,10.73
2018-01-05T15:16:33.893Z,6.70
2018-01-05T15:19:02.191Z,13.20
2018-01-05T15:21:29.686Z,11.13
2018-01-05T15:23:57.163Z,8.23
2018-01-05T15:26:25.168Z,9.47
2018-01-05T15:28:53.397Z,8.50
2018-01-05T15:31:20.893Z,12.87
2018-01-05T15:33:48.373Z,19.40
2018-01-05T15:36:15.868Z,47.63
2018-01-05T15:38:43.334Z,50.07
2018-01-05T15:41:10.843Z,30.50
2018-01-05T15:43:38.372Z,38.13
2018-01-05T15:46:05.893Z,25.70
2018-01-05T15:48:33.364Z,25.00
2018-01-05T15:51:00.848Z,44.17
2018-01-05T15:53:28.406Z,42.50
2018-01-05T15:55:55.906Z,31.07
2018-01-05T15:58:23.432Z,13.37
2018-01-05T16:00:50.919Z,7.87
2018-01-05T16:03:18.473Z,9.88
2018-01-05T16:05:45.931Z,5.80
2018-01-05T16:08:14.191Z,9.33
2018-01-05T16:10:41.678Z,7.53
2018-01-05T16:13:09.161Z,4.50
2018-01-05T16:15:36.665Z,1.97
2018-01-05T16:18:04.940Z,3.37
2018-01-05T16:20:32.440Z,3.47
2018-01-05T16:23:00.006Z,2.90
2018-01-05T16:25:27.535Z,2.70
2018-01-05T16:27:55.804Z,3.83
2018-01-05T16:30:24.077Z,3.20
2018-01-05T16:32:52.329Z,5.78
2018-01-05T16:35:19.795Z,3.87
2018-01-05T16:37:52.667Z,3.97
2018-01-05T16:40:31.117Z,7.93
2018-01-05T16:43:12.521Z,3.37
2018-01-05T16:45:59.022Z,2.12
2018-01-05T16:56:49.061Z,1.10
2018-01-05T16:59:22.559Z,1.10
2018-01-05T17:01:58.760Z,1.00
2018-01-05T17:04:46.055Z,1.37
2018-01-05T17:07:13.548Z,1.52
2018-01-05T17:09:41.039Z,1.30
2018-01-05T17:12:08.573Z,1.25
2018-01-05T17:14:36.047Z,1.20
2018-01-05T17:17:03.519Z,1.20
2018-01-05T17:19:31.026Z,1.25
2018-01-05T17:21:58.534Z,2.25
2018-01-05T17:24:26.774Z,1.42
2018-01-05T17:26:54.248Z,1.15
2018-01-05T17:29:21.751Z,2.67
2018-01-05T17:31:50.016Z,1.30
2018-01-05T17:34:18.295Z,3.05
2018-01-05T17:36:46.539Z,2.60
2018-01-05T17:39:14.006Z,2.05
2018-01-05T17:41:41.498Z,1.40
2018-01-05T17:44:08.990Z,1.25
2018-01-05T17:46:36.491Z,2.20
2018-01-05T17:49:04.740Z,1.90
2018-01-05T17:51:32.288Z,1.50
2018-01-05T17:53:59.816Z,2.20
2018-01-05T17:56:27.293Z,1.80
2018-01-05T17:58:54.811Z,2.25
2018-01-05T18:01:23.070Z,1.20
2018-01-05T18:03:50.582Z,4.32
2018-01-05T18:06:18.084Z,5.22
2018-01-05T18:08:45.589Z,8.02
2018-01-05T18:11:13.092Z,28.70
2018-01-05T18:13:40.574Z,24.75
2018-01-05T18:16:08.859Z,15.13
2018-01-05T18:18:37.118Z,10.23
2018-01-05T18:21:04.590Z,11.82
2018-01-05T18:23:32.871Z,13.85
2018-01-05T18:26:00.451Z,11.15
2018-01-05T18:28:27.979Z,11.38
2018-01-05T18:30:55.459Z,7.93
2018-01-05T18:33:23.726Z,4.32
2018-01-05T18:35:51.996Z,5.78
2018-01-05T18:38:19.605Z,5.43
2018-01-05T18:40:47.127Z,4.45
2018-01-05T18:43:15.363Z,3.75
2018-01-05T18:45:42.838Z,11.80
2018-01-05T18:48:10.335Z,10.32
2018-01-05T18:50:37.830Z,8.18
2018-01-05T18:53:05.307Z,7.47
2018-01-05T18:55:32.828Z,6.62
2018-01-05T18:58:00.282Z,9.80
2018-01-05T19:00:27.798Z,9.00
2018-01-05T19:02:55.283Z,3.92
2018-01-05T19:05:23.196Z,2.60
2018-01-05T19:07:50.645Z,2.50
2018-01-05T19:10:18.117Z,2.00
2018-01-05T19:12:45.627Z,4.10
2018-01-05T19:15:13.122Z,4.35
2018-01-05T19:17:42.046Z,5.05
2018-01-05T19:20:09.595Z,5.82
2018-01-05T19:22:37.090Z,2.85
2018-01-05T19:25:05.350Z,2.47
2018-01-05T19:27:32.819Z,2.12
2018-01-05T19:30:01.084Z,1.67
2018-01-05T19:32:28.623Z,1.70
2018-01-05T19:34:56.095Z,6.40
2018-01-05T19:37:23.591Z,2.62
2018-01-05T19:39:51.066Z,2.03
2018-01-05T19:42:18.599Z,2.62
2018-01-05T19:44:46.859Z,2.55
2018-01-05T19:47:14.329Z,1.75
2018-01-05T19:49:42.613Z,2.30
2018-01-05T19:52:10.843Z,2.30
2018-01-05T19:54:38.326Z,4.00
2018-01-05T19:57:05.862Z,5.93
2018-01-05T19:59:33.322Z,10.40
2018-01-05T20:02:00.832Z,18.55
2018-01-05T20:04:28.290Z,4.78
2018-01-05T20:06:55.819Z,21.50
2018-01-05T20:09:23.294Z,7.62
2018-01-05T20:11:51.578Z,62.22
2018-01-05T20:14:19.855Z,10.95
2018-01-05T20:16:47.380Z,7.30
2018-01-05T20:19:14.885Z,3.95
2018-01-05T20:21:43.117Z,2.72
2018-01-05T20:24:10.616Z,4.37
2018-01-05T20:26:38.067Z,2.55
2018-01-05T20:29:05.567Z,2.37
2018-01-05T20:31:33.030Z,2.92
2018-01-05T20:34:00.540Z,3.55
2018-01-05T20:36:28.803Z,2.37
2018-01-05T20:38:57.072Z,3.30
2018-01-05T20:41:25.392Z,4.00
2018-01-05T20:43:52.887Z,2.60
2018-01-05T20:46:20.375Z,2.37
2018-01-05T20:48:47.886Z,2.60
2018-01-05T20:51:15.361Z,1.85
2018-01-05T20:53:42.926Z,3.45
2018-01-05T20:56:10.418Z,8.13
2018-01-05T20:58:38.693Z,7.20
2018-01-05T21:01:06.948Z,12.75
2018-01-05T21:03:35.196Z,6.95
2018-01-05T21:06:02.723Z,7.03
2018-01-05T21:08:30.946Z,2.90
2018-01-05T21:10:58.431Z,2.85
2018-01-05T21:13:25.941Z,5.22
2018-01-05T21:15:53.424Z,4.78
2018-01-05T21:18:20.893Z,4.95
2018-01-05T21:20:48.386Z,5.78
2018-01-05T21:23:16.650Z,5.70
2018-01-05T21:25:44.908Z,5.50
2018-01-05T21:28:12.375Z,4.00
2018-01-05T21:30:40.661Z,4.00
2018-01-05T21:33:08.903Z,2.72
2018-01-05T21:35:36.419Z,4.87
2018-01-05T21:38:03.875Z,2.85
2018-01-05T21:40:31.354Z,3.65
2018-01-05T21:42:58.842Z,4.07
2018-01-05T21:45:26.393Z,3.05
2018-01-05T21:47:53.862Z,2.37
2018-01-05T21:50:21.347Z,2.05
2018-01-05T21:52:48.857Z,1.95
2018-01-05T21:55:16.351Z,4.20
2018-01-05T21:57:43.845Z,3.53
2018-01-05T22:00:11.376Z,2.95
2018-01-05T22:02:38.894Z,5.45
2018-01-05T22:05:06.402Z,11.55
2018-01-05T22:07:34.694Z,10.27
2018-01-05T22:10:02.162Z,13.23
2018-01-05T22:12:29.661Z,12.35
2018-01-05T22:14:57.180Z,7.55
2018-01-05T22:17:24.689Z,6.85
2018-01-05T22:19:52.250Z,4.10
2018-01-05T22:22:19.746Z,4.97
2018-01-05T22:24:47.994Z,6.20
2018-01-05T22:27:15.510Z,5.25
2018-01-05T22:29:43.033Z,12.10
2018-01-05T22:32:11.291Z,12.13
2018-01-05T22:34:38.757Z,9.65
2018-01-05T22:37:06.291Z,9.68
2018-01-05T22:39:33.766Z,8.77
2018-01-05T22:42:01.266Z,7.68
2018-01-05T22:44:28.772Z,5.65
2018-01-05T22:46:56.249Z,4.50
2018-01-05T22:49:24.505Z,5.85
2018-01-05T22:51:51.969Z,4.55
2018-01-05T22:54:21.010Z,3.30
2018-01-05T22:56:48.462Z,2.97
2018-01-05T22:59:15.940Z,2.85
2018-01-05T23:01:43.462Z,3.60
2018-01-05T23:04:10.922Z,4.03
2018-01-05T23:06:39.181Z,4.75
2018-01-05T23:09:06.671Z,5.18
2018-01-05T23:11:34.947Z,5.28
2018-01-05T23:14:02.439Z,3.53
2018-01-05T23:16:29.920Z,9.25
2018-01-05T23:18:57.418Z,6.15
2018-01-05T23:21:25.654Z,7.62
2018-01-05T23:23:53.149Z,5.12
2018-01-05T23:26:21.402Z,5.45
2018-01-05T23:28:48.868Z,3.95
2018-01-05T23:31:16.368Z,6.82
2018-01-05T23:33:43.854Z,7.75
2018-01-05T23:36:11.373Z,10.18
2018-01-05T23:38:39.628Z,11.82
2018-01-05T23:41:07.089Z,5.82
2018-01-05T23:43:34.567Z,4.82
2018-01-05T23:46:02.038Z,6.15
2018-01-05T23:48:29.534Z,5.05
2018-01-05T23:50:57.024Z,6.65
2018-01-05T23:53:25.644Z,8.20
2018-01-05T23:55:53.118Z,9.05
2018-01-05T23:58:20.621Z,5.60
